createdAt,value
2019-05-09T00:00:43.744Z,53.09
2019-05-09T00:03:18.218Z,53.14
2019-05-09T00:06:04.601Z,53.24
2019-05-09T00:08:36.932Z,53.22
2019-05-09T00:11:08.826Z,53.41
2019-05-09T00:13:43.460Z,53.43
2019-05-09T00:16:16.363Z,53.35
2019-05-09T00:18:54.049Z,53.15
2019-05-09T00:21:28.402Z,53.54
2019-05-09T00:24:03.511Z,53.54
2019-05-09T00:26:36.755Z,53.50
2019-05-09T00:29:21.163Z,53.78
2019-05-09T00:31:54.535Z,53.78
2019-05-09T00:34:39.945Z,53.78
2019-05-09T00:37:13.534Z,53.95
2019-05-09T00:39:45.688Z,53.87
2019-05-09T00:42:18.622Z,53.84
2019-05-09T00:44:58.928Z,54.00
2019-05-09T00:47:32.927Z,54.06
2019-05-09T00:50:08.377Z,54.02
2019-05-09T00:52:43.045Z,54.05
2019-05-09T00:55:15.842Z,54.08
2019-05-09T00:57:48.849Z,54.17
2019-05-09T01:00:24.124Z,54.15
2019-05-09T01:02:56.671Z,54.24
2019-05-09T01:05:28.416Z,54.24
2019-05-09T01:08:04.194Z,54.13
2019-05-09T01:10:37.145Z,54.33
2019-05-09T01:13:14.037Z,54.29
2019-05-09T01:15:46.496Z,54.45
2019-05-09T01:18:20.440Z,54.37
2019-05-09T01:20:53.093Z,54.43
2019-05-09T01:23:27.630Z,54.81
2019-05-09T01:25:59.736Z,54.85
2019-05-09T01:28:33.854Z,54.95
2019-05-09T01:31:07.449Z,55.13
2019-05-09T01:33:53.280Z,54.89
2019-05-09T01:36:26.163Z,55.04
2019-05-09T01:38:59.060Z,55.14
2019-05-09T01:41:34.067Z,55.45
2019-05-09T01:44:06.567Z,55.33
2019-05-09T01:46:39.548Z,55.55
2019-05-09T01:49:13.800Z,55.60
2019-05-09T01:51:47.068Z,55.61
2019-05-09T01:54:20.495Z,55.79
2019-05-09T01:56:53.776Z,55.99
2019-05-09T01:59:25.839Z,56.11
2019-05-09T02:01:57.472Z,55.90
2019-05-09T02:04:30.743Z,55.87
2019-05-09T02:07:04.469Z,55.97
2019-05-09T02:09:36.441Z,55.97
2019-05-09T02:12:09.423Z,56.22
2019-05-09T02:15:03.881Z,56.17
2019-05-09T02:17:58.900Z,56.25
2019-05-09T02:20:24.234Z,55.95
2019-05-09T02:22:57.315Z,56.37
2019-05-09T02:25:30.318Z,56.32
2019-05-09T02:28:03.500Z,56.42
2019-05-09T02:30:36.185Z,56.61
2019-05-09T02:33:09.278Z,56.55
2019-05-09T02:35:56.254Z,56.65
2019-05-09T02:38:19.718Z,56.63
2019-05-09T02:40:51.791Z,56.58
2019-05-09T02:43:24.606Z,56.93
2019-05-09T02:46:11.447Z,56.88
2019-05-09T02:48:43.174Z,56.92
2019-05-09T02:51:14.924Z,57.19
2019-05-09T02:53:48.696Z,57.26
2019-05-09T02:56:21.816Z,57.25
2019-05-09T02:59:05.309Z,57.32
2019-05-09T03:01:49.559Z,57.36
2019-05-09T03:04:21.384Z,57.31
2019-05-09T03:06:54.346Z,57.37
2019-05-09T03:09:28.811Z,57.49
2019-05-09T03:12:21.262Z,57.35
2019-05-09T03:14:38.815Z,57.39
2019-05-09T03:17:11.829Z,57.40
2019-05-09T03:19:44.833Z,57.52
2019-05-09T03:22:20.378Z,57.44
2019-05-09T03:24:52.034Z,57.58
2019-05-09T03:27:48.265Z,57.58
2019-05-09T03:30:21.012Z,57.55
2019-05-09T03:32:53.129Z,57.70
2019-05-09T03:35:24.859Z,57.58
2019-05-09T03:38:08.261Z,57.62
2019-05-09T03:40:40.051Z,57.70
2019-05-09T03:43:13.065Z,57.72
2019-05-09T03:45:49.135Z,57.69
2019-05-09T03:48:34.519Z,57.82
2019-05-09T03:51:08.098Z,57.85
2019-05-09T03:53:40.661Z,57.88
2019-05-09T03:56:15.279Z,58.02
2019-05-09T03:58:47.500Z,58.07
2019-05-09T04:01:19.629Z,57.93
2019-05-09T04:03:51.380Z,57.99
2019-05-09T04:06:24.363Z,58.24
2019-05-09T04:08:58.540Z,58.13
2019-05-09T04:11:31.564Z,58.16
2019-05-09T04:14:21.351Z,58.21
2019-05-09T04:16:52.954Z,58.38
2019-05-09T04:19:27.881Z,58.50
2019-05-09T04:22:02.188Z,58.50
2019-05-09T04:24:33.214Z,58.60
2019-05-09T04:27:07.815Z,58.61
2019-05-09T04:29:39.715Z,58.47
2019-05-09T04:32:11.448Z,58.82
2019-05-09T04:34:43.180Z,58.90
2019-05-09T04:37:15.292Z,58.91
2019-05-09T04:39:47.621Z,58.90
2019-05-09T04:42:19.460Z,58.83
2019-05-09T04:44:57.594Z,59.01
2019-05-09T04:47:28.756Z,59.01
2019-05-09T04:50:07.608Z,58.70
2019-05-09T04:52:39.992Z,59.20
2019-05-09T04:55:12.799Z,59.40
2019-05-09T04:57:45.624Z,59.47
2019-05-09T05:00:19.100Z,59.49
2019-05-09T05:02:52.431Z,59.59
2019-05-09T05:05:24.320Z,59.45
2019-05-09T05:07:57.359Z,59.43
2019-05-09T05:10:30.271Z,59.50
2019-05-09T05:13:02.012Z,59.45
2019-05-09T05:15:33.763Z,59.77
2019-05-09T05:18:05.627Z,59.49
2019-05-09T05:20:38.509Z,59.56
2019-05-09T05:23:11.999Z,59.63
2019-05-09T05:25:43.689Z,59.39
2019-05-09T05:28:17.568Z,59.25
2019-05-09T05:30:51.398Z,59.00
2019-05-09T05:33:27.886Z,59.10
2019-05-09T13:22:52.060Z,78.79
2019-05-09T13:25:34.040Z,69.17
2019-05-09T13:28:08.299Z,58.87
2019-05-09T13:30:39.797Z,56.82
2019-05-09T13:33:14.024Z,58.90
2019-05-09T13:35:45.690Z,61.81
2019-05-09T13:38:18.017Z,62.85
2019-05-09T13:40:53.475Z,60.47
2019-05-09T13:43:24.672Z,54.94
2019-05-09T13:45:58.683Z,52.40
2019-05-09T13:48:55.225Z,53.42
2019-05-09T13:51:04.004Z,55.28
2019-05-09T13:53:35.744Z,56.83
2019-05-09T13:56:08.462Z,58.68
2019-05-09T13:58:41.640Z,60.32
2019-05-09T14:01:14.284Z,61.18
2019-05-09T14:03:45.808Z,61.33
2019-05-09T14:06:17.569Z,62.26
2019-05-09T14:08:49.800Z,61.87
2019-05-09T14:11:23.113Z,56.46
2019-05-09T14:13:54.655Z,54.56
2019-05-09T14:16:28.660Z,56.32
2019-05-09T14:19:23.979Z,58.20
2019-05-09T14:21:33.380Z,59.41
2019-05-09T14:24:14.054Z,60.44
2019-05-09T14:26:40.371Z,60.70
2019-05-09T14:29:13.316Z,61.95
2019-05-09T14:31:45.372Z,62.54
2019-05-09T14:34:19.714Z,58.55
2019-05-09T14:36:51.948Z,56.40
2019-05-09T14:39:23.952Z,56.32
2019-05-09T14:41:57.807Z,58.50
2019-05-09T14:44:30.238Z,60.58
2019-05-09T14:47:02.251Z,61.50
2019-05-09T14:49:41.413Z,62.06
2019-05-09T14:52:08.537Z,62.78
2019-05-09T14:54:40.642Z,60.10
2019-05-09T14:57:14.020Z,55.75
2019-05-09T14:59:45.645Z,56.09
2019-05-09T15:02:20.659Z,57.47
2019-05-09T15:04:52.333Z,58.80
2019-05-09T15:07:24.099Z,59.94
2019-05-09T15:09:57.583Z,60.58
2019-05-09T15:12:31.291Z,61.47
2019-05-09T15:15:07.582Z,63.01
2019-05-09T15:17:39.075Z,57.60
2019-05-09T15:20:12.700Z,58.11
2019-05-09T15:22:47.750Z,59.44
2019-05-09T15:25:20.630Z,60.81
2019-05-09T15:27:53.178Z,63.49
2019-05-09T15:30:24.966Z,60.37
2019-05-09T15:33:01.394Z,56.73
2019-05-09T15:35:33.077Z,56.52
2019-05-09T15:38:11.322Z,58.38
2019-05-09T15:40:42.910Z,59.69
2019-05-09T15:43:14.776Z,61.39
2019-05-09T15:45:57.929Z,62.64
2019-05-09T15:48:29.308Z,61.21
2019-05-09T15:51:01.161Z,58.47
2019-05-09T15:53:38.097Z,56.71
2019-05-09T15:56:09.847Z,58.30
2019-05-09T15:58:41.925Z,59.75
2019-05-09T16:01:13.660Z,61.80
2019-05-09T16:03:48.604Z,62.69
2019-05-09T16:06:22.308Z,62.42
2019-05-09T16:08:58.518Z,58.48
2019-05-09T16:11:32.125Z,54.76
2019-05-09T16:14:03.895Z,56.75
2019-05-09T16:16:35.726Z,58.88
2019-05-09T16:19:09.179Z,59.85
2019-05-09T16:21:40.988Z,61.36
2019-05-09T16:24:18.860Z,62.80
2019-05-09T16:26:53.756Z,60.50
2019-05-09T16:29:30.364Z,58.04
2019-05-09T16:32:03.518Z,58.96
2019-05-09T16:34:40.079Z,60.34
2019-05-09T16:37:13.464Z,61.56
2019-05-09T16:39:47.023Z,62.87
2019-05-09T16:42:21.763Z,63.49
2019-05-09T16:44:54.663Z,58.39
2019-05-09T16:47:28.441Z,54.42
2019-05-09T16:50:01.150Z,55.67
2019-05-09T16:52:39.847Z,57.47
2019-05-09T16:55:12.635Z,59.30
2019-05-09T16:57:44.291Z,60.51
2019-05-09T17:00:30.226Z,61.55
2019-05-09T17:03:01.793Z,62.57
2019-05-09T17:05:33.388Z,59.69
2019-05-09T17:08:05.133Z,55.47
2019-05-09T17:10:38.471Z,56.85
2019-05-09T17:13:10.207Z,58.07
2019-05-09T17:15:41.989Z,60.38
2019-05-09T17:18:15.266Z,61.52
2019-05-09T17:20:50.616Z,63.07
2019-05-09T17:23:24.135Z,58.16
2019-05-09T17:25:57.918Z,57.68
2019-05-09T17:28:29.812Z,59.66
2019-05-09T17:31:04.663Z,60.86
2019-05-09T17:33:37.944Z,62.66
2019-05-09T17:36:10.049Z,63.47
2019-05-09T17:38:43.855Z,59.48
2019-05-09T17:41:19.018Z,57.24
2019-05-09T17:43:54.958Z,58.61
2019-05-09T17:46:28.060Z,59.98
2019-05-09T17:48:59.712Z,60.87
2019-05-09T17:51:33.868Z,63.72
2019-05-09T17:54:07.828Z,59.50
2019-05-09T17:56:40.407Z,56.83
2019-05-09T17:59:18.525Z,58.11
2019-05-09T18:01:51.096Z,59.59
2019-05-09T18:04:22.892Z,60.63
2019-05-09T18:06:54.698Z,61.90
2019-05-09T18:09:28.589Z,63.18
2019-05-09T18:12:00.711Z,65.22
2019-05-09T18:14:33.077Z,61.98
2019-05-09T18:17:05.008Z,58.55
2019-05-09T18:19:38.105Z,56.71
2019-05-09T18:22:10.898Z,57.92
2019-05-09T18:24:42.785Z,59.21
2019-05-09T18:27:14.617Z,60.25
2019-05-09T18:29:47.398Z,61.53
2019-05-09T18:32:31.114Z,62.47
2019-05-09T18:35:13.058Z,64.88
2019-05-09T18:37:48.260Z,61.69
2019-05-09T18:40:21.852Z,59.01
2019-05-09T18:42:53.603Z,56.75
2019-05-09T18:45:30.237Z,57.13
2019-05-09T18:48:02.102Z,58.22
2019-05-09T18:50:33.885Z,59.54
2019-05-09T18:53:05.537Z,60.59
2019-05-09T18:55:37.300Z,61.65
2019-05-09T18:58:10.739Z,63.11
2019-05-09T19:00:45.898Z,65.71
2019-05-09T19:03:17.540Z,62.98
2019-05-09T19:05:49.292Z,59.58
2019-05-09T19:08:22.721Z,56.66
2019-05-09T19:10:56.026Z,57.51
2019-05-09T19:13:27.817Z,58.64
2019-05-09T19:16:16.488Z,59.91
2019-05-09T19:19:08.134Z,61.43
2019-05-09T19:21:41.438Z,62.58
2019-05-09T19:24:13.101Z,65.06
2019-05-09T19:26:44.859Z,62.15
2019-05-09T19:29:18.149Z,59.83
2019-05-09T19:31:49.915Z,57.39
2019-05-09T19:34:21.463Z,57.80
2019-05-09T19:36:53.140Z,59.25
2019-05-09T19:39:24.913Z,60.58
2019-05-09T19:41:57.380Z,61.73
2019-05-09T19:44:29.228Z,63.25
2019-05-09T19:47:03.968Z,65.93
2019-05-09T19:49:36.596Z,61.26
2019-05-09T19:52:09.517Z,56.88
2019-05-09T19:54:41.269Z,52.94
2019-05-09T19:57:13.892Z,54.13
2019-05-09T19:59:50.462Z,55.57
2019-05-09T20:02:22.615Z,57.24
2019-05-09T20:04:57.378Z,58.55
2019-05-09T20:07:32.181Z,60.14
2019-05-09T20:10:09.910Z,61.25
2019-05-09T20:12:59.356Z,62.35
2019-05-09T20:15:30.907Z,65.17
2019-05-09T20:18:02.673Z,60.84
2019-05-09T20:20:34.482Z,55.75
2019-05-09T20:23:06.249Z,51.66
2019-05-09T20:25:38.005Z,52.75
2019-05-09T20:28:09.764Z,53.83
2019-05-09T20:30:43.402Z,55.37
2019-05-09T20:33:17.228Z,57.04
2019-05-09T20:35:55.982Z,58.45
2019-05-09T20:38:31.882Z,59.46
2019-05-09T20:41:09.998Z,60.97
2019-05-09T20:43:44.586Z,62.51
2019-05-09T20:46:16.538Z,66.07
2019-05-09T20:48:48.770Z,61.85
2019-05-09T20:51:27.053Z,58.37
2019-05-09T20:54:19.950Z,54.28
2019-05-09T20:56:37.168Z,54.65
2019-05-09T20:59:10.608Z,56.27
2019-05-09T21:01:42.911Z,57.96
2019-05-09T21:04:15.968Z,59.75
2019-05-09T21:06:48.151Z,61.11
2019-05-09T21:09:21.678Z,62.46
2019-05-09T21:11:53.697Z,66.31
2019-05-09T21:14:25.524Z,61.57
2019-05-09T21:16:57.573Z,56.73
2019-05-09T21:19:29.609Z,52.98
2019-05-09T21:22:01.698Z,54.21
2019-05-09T21:24:33.724Z,56.09
2019-05-09T21:27:05.566Z,57.39
2019-05-09T21:29:38.466Z,58.54
2019-05-09T21:32:10.319Z,60.28
2019-05-09T21:34:42.181Z,60.94
2019-05-09T21:37:14.150Z,62.13
2019-05-09T21:39:46.235Z,63.71
2019-05-09T21:42:18.011Z,67.20
2019-05-09T21:44:49.719Z,61.48
2019-05-09T21:47:21.558Z,55.78
2019-05-09T21:49:54.498Z,51.74
2019-05-09T21:52:27.217Z,52.81
2019-05-09T21:54:58.953Z,54.69
2019-05-09T21:57:31.963Z,55.97
2019-05-09T22:00:05.993Z,57.22
2019-05-09T22:02:39.432Z,58.57
2019-05-09T22:05:12.448Z,60.04
2019-05-09T22:07:44.203Z,61.78
2019-05-09T22:10:16.302Z,62.75
2019-05-09T22:12:48.060Z,66.41
2019-05-09T22:15:20.843Z,63.79
2019-05-09T22:17:52.555Z,57.67
2019-05-09T22:20:25.771Z,53.62
2019-05-09T22:22:57.517Z,54.66
2019-05-09T22:25:29.258Z,56.18
2019-05-09T22:28:00.994Z,58.07
2019-05-09T22:30:32.839Z,60.06
2019-05-09T22:33:04.614Z,60.98
2019-05-09T22:35:36.291Z,62.56
2019-05-09T22:38:08.115Z,65.96
2019-05-09T22:40:39.868Z,61.47
2019-05-09T22:43:13.135Z,55.67
2019-05-09T22:45:45.500Z,51.87
2019-05-09T22:48:17.235Z,53.23
2019-05-09T22:50:48.969Z,54.70
2019-05-09T22:53:20.828Z,55.71
2019-05-09T22:55:52.552Z,56.90
2019-05-09T22:58:24.301Z,58.21
2019-05-09T23:00:56.028Z,59.58
2019-05-09T23:03:27.785Z,60.55
2019-05-09T23:05:59.542Z,61.80
2019-05-09T23:08:31.304Z,66.22
2019-05-09T23:11:03.041Z,61.53
2019-05-09T23:13:36.517Z,56.75
2019-05-09T23:16:09.571Z,52.48
2019-05-09T23:18:41.391Z,53.69
2019-05-09T23:21:16.481Z,55.01
2019-05-09T23:23:56.064Z,56.42
2019-05-09T23:26:27.796Z,57.87
2019-05-09T23:28:59.560Z,59.41
2019-05-09T23:31:38.938Z,59.56
2019-05-09T23:34:10.686Z,60.80
2019-05-09T23:36:42.637Z,62.56
2019-05-09T23:39:25.005Z,67.44
2019-05-09T23:41:56.927Z,62.67
2019-05-09T23:44:28.879Z,56.86
2019-05-09T23:47:00.659Z,52.38
2019-05-09T23:49:32.293Z,53.51
2019-05-09T23:52:04.143Z,54.73
2019-05-09T23:54:53.599Z,55.83
2019-05-09T23:57:43.302Z,57.95
